South Washington, Vermont
Current Conditions -  °F | °C
As of 6:51 PM on Monday 20 Oct 2014 (Local Time) from KMPV Reporting Station
Overcast Overcast  
Wind Chill: 44°   Ceiling: 6500
Heat Index: 44°   Visibility: 10mi
Dew Point: 36°   Wind: 3mph
Humidity: 73%   Direction: 170°S
Pressure: 29.97"   Gusts: NA
Location:  44.0671°N, 72.4216°W
Report Text: KMPV 202251Z AUTO 17003KT 10SM SCT046 BKN065 OVC080 07/02 A2997 RMK AO2 SLP159 T00670022 $
Loading
Personal Weather Stations






























Interactive Weather Map New forecast layout! Learn more

10-Day Weather Forecast

Advertisements
Track Severe Weather on mobile